Time;durP1;ratioP1;P1;durP2;ratioP2;P2;SDS_P1;SDS_P2;PMS_P1;PMS_P2;Temp;Humidity;BMP_temperature;BMP_pressure;BME280_temperature;BME280_humidity;BME280_pressure;Samples;Min_cycle;Max_cycle;Signal;HPM_P1;HPM_P2
2022/10/10 00:00:22;;;;;;;6.33;2.20;;;12.00;99.90;;;;;;5030762;28;20542;-51
2022/10/10 00:02:49;;;;;;;4.80;2.83;;;12.20;99.90;;;;;;5030421;28;20481;-50
2022/10/10 00:05:16;;;;;;;6.30;3.03;;;12.20;99.90;;;;;;5030653;28;20536;-51
2022/10/10 00:07:44;;;;;;;5.57;2.60;;;12.30;99.90;;;;;;5030344;28;20833;-51
2022/10/10 00:10:11;;;;;;;3.70;2.80;;;12.40;99.90;;;;;;5030865;28;20448;-51
2022/10/10 00:12:38;;;;;;;5.67;2.73;;;12.50;99.90;;;;;;5030433;28;20932;-51
2022/10/10 00:15:06;;;;;;;3.93;2.93;;;12.50;99.90;;;;;;5030064;28;20504;-51
2022/10/10 00:17:33;;;;;;;5.27;2.70;;;11.80;99.90;;;;;;5030245;28;20501;-52
2022/10/10 00:20:00;;;;;;;4.60;3.20;;;11.60;99.90;;;;;;5030022;28;20872;-51
2022/10/10 00:22:27;;;;;;;3.90;2.93;;;11.30;99.90;;;;;;5030535;28;21023;-51
2022/10/10 00:24:55;;;;;;;5.50;3.10;;;11.60;99.90;;;;;;5030004;28;20530;-51
2022/10/10 00:27:22;;;;;;;3.13;2.73;;;11.90;99.90;;;;;;5030000;28;20917;-51
2022/10/10 00:29:48;;;;;;;3.53;2.80;;;11.60;99.90;;;;;;5030365;28;20446;-51
2022/10/10 00:32:15;;;;;;;4.77;2.70;;;11.90;99.90;;;;;;5030094;28;20973;-51
2022/10/10 00:34:42;;;;;;;4.30;3.00;;;12.10;99.90;;;;;;5030073;28;20534;-51
2022/10/10 00:37:09;;;;;;;6.23;3.90;;;11.80;99.90;;;;;;5030264;28;20467;-51
2022/10/10 00:39:36;;;;;;;3.70;2.83;;;11.80;99.90;;;;;;5030301;28;20540;-51
2022/10/10 00:42:04;;;;;;;4.60;2.70;;;12.10;99.90;;;;;;5029977;28;20559;-52
2022/10/10 00:44:31;;;;;;;7.27;3.60;;;12.00;99.90;;;;;;5029760;28;20447;-51
2022/10/10 00:46:58;;;;;;;6.57;3.10;;;12.00;99.90;;;;;;5029861;28;20476;-51
2022/10/10 00:49:28;;;;;;;5.70;3.47;;;12.20;99.90;;;;;;5029942;28;20959;-51
2022/10/10 00:51:59;;;;;;;5.03;3.00;;;12.30;99.90;;;;;;5029680;28;20438;-51
2022/10/10 00:54:27;;;;;;;5.23;3.43;;;12.40;99.90;;;;;;5029670;28;20543;-51
2022/10/10 00:56:57;;;;;;;4.07;2.93;;;11.90;99.90;;;;;;5029555;28;20466;-51
2022/10/10 00:59:26;;;;;;;4.63;2.60;;;11.70;99.90;;;;;;5029884;28;20472;-51
2022/10/10 01:01:53;;;;;;;3.60;2.23;;;12.00;99.90;;;;;;5029985;28;20831;-51
2022/10/10 01:04:35;;;;;;;3.70;2.70;;;12.10;99.90;;;;;;5029321;28;20973;-51
2022/10/10 01:07:04;;;;;;;5.00;3.10;;;12.10;99.90;;;;;;5029414;28;20542;-52
2022/10/10 01:09:32;;;;;;;5.00;2.80;;;11.90;99.90;;;;;;5029454;28;20446;-51
2022/10/10 01:12:09;;;;;;;5.53;2.97;;;12.00;99.90;;;;;;5029370;28;20443;-51
2022/10/10 01:14:44;;;;;;;5.33;2.50;;;12.10;99.90;;;;;;5029573;28;20534;-51
2022/10/10 01:17:18;;;;;;;3.60;2.73;;;12.20;99.90;;;;;;5029689;28;20462;-51
2022/10/10 01:20:11;;;;;;;4.10;2.97;;;12.30;99.90;;;;;;5029220;28;20519;-51
2022/10/10 01:22:46;;;;;;;7.00;3.00;;;12.30;99.90;;;;;;5029347;28;20482;-51
2022/10/10 01:25:23;;;;;;;5.07;2.57;;;12.20;99.90;;;;;;5029542;28;20530;-52
2022/10/10 01:27:53;;;;;;;2.63;2.33;;;12.40;99.90;;;;;;5029025;28;20856;-51
2022/10/10 01:30:24;;;;;;;4.13;2.93;;;12.40;99.90;;;;;;5028628;28;20964;-51
2022/10/10 01:32:54;;;;;;;4.10;3.33;;;12.10;99.90;;;;;;5029311;28;20443;-53
2022/10/10 01:35:39;;;;;;;3.53;2.37;;;12.20;99.90;;;;;;5029332;28;20441;-51
2022/10/10 01:38:17;;;;;;;2.73;2.47;;;12.30;99.90;;;;;;5029163;28;20915;-51
2022/10/10 01:40:51;;;;;;;7.63;3.27;;;11.90;99.90;;;;;;5029645;28;20953;-51
2022/10/10 01:43:18;;;;;;;3.70;3.07;;;12.00;99.90;;;;;;5028998;28;20489;-51
2022/10/10 01:45:48;;;;;;;4.90;2.77;;;12.10;99.90;;;;;;5029386;28;20441;-51
2022/10/10 01:48:17;;;;;;;4.80;2.57;;;12.20;99.90;;;;;;5029068;28;20549;-52
2022/10/10 01:50:59;;;;;;;3.67;2.60;;;12.00;99.90;;;;;;5028940;28;20443;-51
2022/10/10 01:53:37;;;;;;;5.53;2.40;;;12.20;99.90;;;;;;5028760;28;20549;-51
2022/10/10 01:56:10;;;;;;;8.17;2.60;;;12.30;99.90;;;;;;5028997;28;20454;-51
2022/10/10 01:58:58;;;;;;;4.40;2.93;;;12.10;99.90;;;;;;5040140;23;20542;-49
2022/10/10 02:01:33;;;;;;;7.33;2.83;;;11.10;99.90;;;;;;5008827;28;20447;-48
2022/10/10 02:04:06;;;;;;;4.60;2.50;;;11.00;99.90;;;;;;5008807;28;20550;-47
2022/10/10 02:06:41;;;;;;;4.80;2.80;;;11.50;99.90;;;;;;5009225;28;20462;-47
2022/10/10 02:09:13;;;;;;;5.77;2.50;;;11.70;99.90;;;;;;5008993;28;20849;-47
2022/10/10 02:11:41;;;;;;;4.07;2.80;;;11.80;99.90;;;;;;5008880;28;20475;-49
2022/10/10 02:14:13;;;;;;;6.83;3.07;;;11.80;99.90;;;;;;5008895;28;20486;-47
2022/10/10 02:16:45;;;;;;;7.87;3.13;;;11.80;99.90;;;;;;5009208;28;20447;-47
2022/10/10 02:19:16;;;;;;;3.93;2.53;;;11.70;99.90;;;;;;5008246;28;20981;-47
2022/10/10 02:21:44;;;;;;;4.40;2.80;;;11.80;99.90;;;;;;5007516;28;20443;-49
2022/10/10 02:24:13;;;;;;;3.53;2.20;;;11.80;99.90;;;;;;5008671;28;20488;-49
2022/10/10 02:26:43;;;;;;;4.07;2.33;;;11.80;99.90;;;;;;5008907;28;20968;-47
2022/10/10 02:29:16;;;;;;;3.27;2.53;;;11.80;99.90;;;;;;5008342;28;21020;-48
2022/10/10 02:31:51;;;;;;;3.60;2.50;;;11.90;99.90;;;;;;5008975;28;20450;-48
2022/10/10 02:34:20;;;;;;;4.43;2.87;;;12.00;99.90;;;;;;5008473;28;20452;-47
2022/10/10 02:36:51;;;;;;;7.53;2.70;;;12.00;99.90;;;;;;5008569;28;20445;-47
2022/10/10 02:39:21;;;;;;;3.40;2.80;;;12.00;99.90;;;;;;5008754;28;20469;-48
2022/10/10 02:41:51;;;;;;;3.47;2.30;;;12.10;99.90;;;;;;5008765;28;20440;-49
2022/10/10 02:44:19;;;;;;;5.40;2.70;;;12.20;99.90;;;;;;5008317;28;20486;-47
2022/10/10 02:46:47;;;;;;;6.00;2.13;;;12.20;99.90;;;;;;5008357;28;20463;-47
2022/10/10 02:49:14;;;;;;;4.20;2.67;;;12.30;99.90;;;;;;5008515;28;20551;-47
2022/10/10 02:51:40;;;;;;;4.60;4.03;;;11.90;99.90;;;;;;5008730;28;20445;-48
2022/10/10 02:54:07;;;;;;;3.20;2.90;;;11.50;99.90;;;;;;5008316;28;20524;-47
2022/10/10 02:56:34;;;;;;;8.63;3.37;;;11.60;99.90;;;;;;5008418;28;21024;-48
2022/10/10 02:59:01;;;;;;;6.63;3.20;;;11.30;99.90;;;;;;5008410;28;20475;-49
2022/10/10 03:01:28;;;;;;;4.80;2.50;;;11.20;99.90;;;;;;5008254;28;20482;-48
2022/10/10 03:03:56;;;;;;;4.90;2.80;;;11.20;99.90;;;;;;5008032;28;20574;-47
2022/10/10 03:06:23;;;;;;;2.57;2.37;;;11.30;99.90;;;;;;5008037;28;20926;-47
2022/10/10 03:08:50;;;;;;;6.00;2.80;;;11.50;99.90;;;;;;5008260;28;20552;-48
2022/10/10 03:11:17;;;;;;;5.07;2.37;;;11.70;99.90;;;;;;5008255;28;20448;-47
2022/10/10 03:13:43;;;;;;;4.70;3.37;;;11.60;99.90;;;;;;5007953;28;20461;-46
2022/10/10 03:16:10;;;;;;;4.73;3.10;;;10.90;99.90;;;;;;5008422;28;20453;-47
2022/10/10 03:18:37;;;;;;;4.63;2.40;;;10.90;99.90;;;;;;5008440;28;20469;-47
2022/10/10 03:21:06;;;;;;;3.27;2.33;;;11.00;99.90;;;;;;5008067;28;20484;-49
2022/10/10 03:23:34;;;;;;;4.70;2.87;;;11.20;99.90;;;;;;5007836;28;20514;-47
2022/10/10 03:26:01;;;;;;;3.00;2.70;;;11.50;99.90;;;;;;5008204;28;20442;-47
2022/10/10 03:28:27;;;;;;;6.33;2.90;;;11.70;99.90;;;;;;5007790;28;20464;-47
2022/10/10 03:30:54;;;;;;;4.13;2.70;;;11.40;99.90;;;;;;5008063;28;20450;-47
2022/10/10 03:33:21;;;;;;;5.07;2.80;;;11.50;99.90;;;;;;5009805;28;20461;-47
2022/10/10 03:35:49;;;;;;;4.40;3.00;;;11.10;99.90;;;;;;5011453;28;20447;-48
2022/10/10 03:38:17;;;;;;;4.57;3.10;;;11.10;99.90;;;;;;5011272;28;20474;-48
2022/10/10 03:40:44;;;;;;;5.83;2.87;;;11.20;99.90;;;;;;5011311;28;20460;-48
2022/10/10 03:43:13;;;;;;;5.13;2.70;;;11.40;99.90;;;;;;5011053;28;20886;-49
2022/10/10 03:45:42;;;;;;;4.00;3.27;;;11.50;99.90;;;;;;5011127;28;20956;-47
2022/10/10 03:48:09;;;;;;;5.20;3.37;;;11.40;99.90;;;;;;5011365;28;20551;-47
2022/10/10 03:50:36;;;;;;;6.13;3.17;;;11.40;99.90;;;;;;5011120;28;20618;-47
2022/10/10 03:53:03;;;;;;;4.90;3.07;;;11.60;99.90;;;;;;5010957;28;20440;-48
2022/10/10 03:55:31;;;;;;;5.33;4.83;;;11.60;99.90;;;;;;5011131;28;21034;-46
2022/10/10 03:57:58;;;;;;;7.23;3.43;;;11.70;99.90;;;;;;5010948;28;20544;-47
2022/10/10 04:00:25;;;;;;;5.50;2.90;;;11.70;99.90;;;;;;5011518;28;20441;-47
2022/10/10 04:02:52;;;;;;;6.50;3.10;;;11.80;99.90;;;;;;5010735;28;20512;-42
2022/10/10 04:05:19;;;;;;;3.90;3.00;;;11.90;99.90;;;;;;5011053;28;20473;-46
2022/10/10 04:07:46;;;;;;;4.00;3.60;;;11.50;99.90;;;;;;5010780;28;20468;-47
2022/10/10 04:10:13;;;;;;;5.03;4.10;;;11.50;99.90;;;;;;5010876;28;20443;-47
2022/10/10 04:12:41;;;;;;;7.63;5.00;;;11.20;99.90;;;;;;5011183;28;20539;-47
2022/10/10 04:15:09;;;;;;;4.77;4.27;;;11.00;99.90;;;;;;5010870;28;20528;-47
2022/10/10 04:17:36;;;;;;;6.00;4.80;;;11.00;99.90;;;;;;5010508;28;20470;-49
2022/10/10 04:20:03;;;;;;;3.97;3.50;;;10.80;99.90;;;;;;5010453;28;20545;-47
2022/10/10 04:22:30;;;;;;;5.20;4.07;;;10.90;99.90;;;;;;5010724;28;20519;-47
2022/10/10 04:24:56;;;;;;;9.50;3.10;;;11.10;99.90;;;;;;5010264;28;20480;-47
2022/10/10 04:27:23;;;;;;;7.63;4.67;;;11.20;99.90;;;;;;5010611;28;20546;-47
2022/10/10 04:29:51;;;;;;;4.90;4.43;;;11.40;99.90;;;;;;5010209;28;20888;-47
2022/10/10 04:32:18;;;;;;;3.80;3.00;;;11.40;99.90;;;;;;5010652;28;20544;-47
2022/10/10 04:34:45;;;;;;;3.60;3.03;;;11.50;99.90;;;;;;5010381;28;20440;-47
2022/10/10 04:37:12;;;;;;;3.30;2.90;;;11.60;99.90;;;;;;5010559;28;20445;-47
2022/10/10 04:39:39;;;;;;;3.40;2.17;;;11.70;99.90;;;;;;5010801;28;20534;-48
2022/10/10 04:42:06;;;;;;;2.97;2.77;;;11.80;99.90;;;;;;5010524;28;20525;-47
2022/10/10 04:44:32;;;;;;;4.67;3.00;;;11.80;99.90;;;;;;5009264;28;20482;-47
2022/10/10 04:47:01;;;;;;;4.37;3.13;;;11.80;99.90;;;;;;5010210;28;20448;-46
2022/10/10 04:49:27;;;;;;;4.90;2.70;;;11.70;99.90;;;;;;5010157;28;20543;-47
2022/10/10 04:51:54;;;;;;;6.80;3.60;;;11.90;99.90;;;;;;5010039;28;20549;-47
2022/10/10 04:54:21;;;;;;;3.70;2.87;;;11.80;99.90;;;;;;5010236;28;20535;-47
2022/10/10 04:56:48;;;;;;;4.63;3.47;;;11.80;99.90;;;;;;5010704;28;20761;-47
2022/10/10 04:59:15;;;;;;;4.83;3.00;;;11.70;99.90;;;;;;5009692;28;21050;-48
2022/10/10 05:01:42;;;;;;;6.23;3.17;;;11.70;99.90;;;;;;5010103;28;20455;-47
2022/10/10 05:04:11;;;;;;;3.53;2.70;;;11.30;99.90;;;;;;5010126;28;20570;-46
2022/10/10 05:06:38;;;;;;;4.00;3.07;;;11.20;99.90;;;;;;5009976;28;20943;-47
2022/10/10 05:09:05;;;;;;;7.07;4.20;;;11.00;99.90;;;;;;5010169;28;20551;-49
2022/10/10 05:11:32;;;;;;;4.73;3.60;;;11.10;99.90;;;;;;5010203;28;20533;-47
2022/10/10 05:13:59;;;;;;;3.63;3.10;;;11.20;99.90;;;;;;5009446;28;20527;-47
2022/10/10 05:16:25;;;;;;;4.50;3.40;;;11.50;99.90;;;;;;5010036;28;20524;-48
2022/10/10 05:18:52;;;;;;;5.37;3.93;;;11.60;99.90;;;;;;5010125;28;20463;-47
2022/10/10 05:21:20;;;;;;;3.87;3.33;;;11.00;99.90;;;;;;5009420;28;20945;-47
2022/10/10 05:23:47;;;;;;;6.33;5.30;;;11.00;99.90;;;;;;5009454;28;20472;-46
2022/10/10 05:26:14;;;;;;;7.83;5.20;;;11.10;99.90;;;;;;5010158;28;20532;-48
2022/10/10 05:28:41;;;;;;;3.70;3.00;;;11.30;99.90;;;;;;5009202;28;20827;-47
2022/10/10 05:31:08;;;;;;;4.80;3.27;;;11.20;99.90;;;;;;5009660;28;20444;-47
2022/10/10 05:33:35;;;;;;;3.50;2.67;;;11.30;99.90;;;;;;5009552;28;20521;-47
2022/10/10 05:36:04;;;;;;;5.97;3.50;;;11.50;99.90;;;;;;5009717;28;20470;-47
2022/10/10 05:38:33;;;;;;;9.03;4.30;;;11.60;99.90;;;;;;5009563;28;20526;-49
2022/10/10 05:41:00;;;;;;;6.07;4.10;;;11.60;99.90;;;;;;5009438;28;20441;-47
2022/10/10 05:43:27;;;;;;;4.63;3.53;;;11.70;99.90;;;;;;5009177;28;20573;-48
2022/10/10 05:45:54;;;;;;;6.00;3.23;;;11.70;99.90;;;;;;5009213;28;20531;-46
2022/10/10 05:48:21;;;;;;;5.43;3.53;;;11.50;99.90;;;;;;5009220;28;20548;-47
2022/10/10 05:50:50;;;;;;;41.37;22.27;;;11.40;99.90;;;;;;5009828;28;20442;-47
2022/10/10 05:53:17;;;;;;;25.83;15.03;;;11.40;99.90;;;;;;5008851;28;20530;-47
2022/10/10 05:55:46;;;;;;;8.00;6.00;;;11.40;99.90;;;;;;5008487;28;20454;-48
2022/10/10 05:58:13;;;;;;;6.37;4.70;;;11.40;99.90;;;;;;5008823;28;20515;-47
2022/10/10 06:00:40;;;;;;;3.30;3.00;;;11.40;99.90;;;;;;5009167;28;20462;-47
2022/10/10 06:03:07;;;;;;;5.20;3.90;;;11.50;99.90;;;;;;5009011;28;20454;-48
2022/10/10 06:05:34;;;;;;;5.57;4.47;;;11.40;99.90;;;;;;5009359;28;20444;-47
2022/10/10 06:08:01;;;;;;;5.90;5.30;;;11.20;99.90;;;;;;5008901;28;20459;-49
2022/10/10 06:10:28;;;;;;;5.03;4.17;;;11.30;99.90;;;;;;5009045;28;20543;-46
2022/10/10 06:12:56;;;;;;;4.80;4.40;;;11.20;99.90;;;;;;5008703;28;20834;-46
2022/10/10 06:15:23;;;;;;;4.90;4.10;;;11.30;99.90;;;;;;5008838;28;21010;-47
2022/10/10 06:17:49;;;;;;;4.87;4.17;;;11.40;99.90;;;;;;5008960;28;20503;-48
2022/10/10 06:20:16;;;;;;;3.67;3.33;;;11.40;99.90;;;;;;5008728;28;20506;-47
2022/10/10 06:22:43;;;;;;;5.33;4.03;;;11.50;99.90;;;;;;5008718;28;20539;-47
2022/10/10 06:25:10;;;;;;;4.20;3.80;;;11.50;99.90;;;;;;5008576;28;20562;-48
2022/10/10 06:27:37;;;;;;;6.57;3.43;;;11.50;99.90;;;;;;5008856;28;20559;-47
2022/10/10 06:30:07;;;;;;;4.13;3.70;;;11.40;99.90;;;;;;5008616;28;20537;-47
2022/10/10 06:32:33;;;;;;;3.83;3.43;;;11.40;99.90;;;;;;5008519;28;20552;-47
2022/10/10 06:35:00;;;;;;;3.20;2.90;;;11.30;99.90;;;;;;5008783;28;20495;-49
2022/10/10 06:37:27;;;;;;;3.57;2.97;;;11.30;99.90;;;;;;5008455;28;20558;-46
2022/10/10 06:39:54;;;;;;;6.23;3.10;;;11.30;99.90;;;;;;5008697;28;20792;-46
2022/10/10 06:42:21;;;;;;;3.67;3.10;;;11.30;99.90;;;;;;5008457;28;20448;-47
2022/10/10 06:44:48;;;;;;;4.13;3.23;;;11.20;99.90;;;;;;5008555;28;20484;-47
2022/10/10 06:47:17;;;;;;;6.40;3.63;;;11.30;99.90;;;;;;5008832;28;20444;-48
2022/10/10 06:49:43;;;;;;;4.87;3.00;;;11.40;99.90;;;;;;5008398;28;20483;-48
2022/10/10 06:52:10;;;;;;;3.97;3.40;;;11.40;99.90;;;;;;5008639;28;20448;-47
2022/10/10 06:54:37;;;;;;;3.83;3.23;;;11.50;99.90;;;;;;5008727;28;20856;-47
2022/10/10 06:57:04;;;;;;;3.90;3.20;;;11.40;99.90;;;;;;5008543;28;20450;-48
2022/10/10 06:59:31;;;;;;;10.57;5.97;;;11.30;99.90;;;;;;5008400;28;20477;-46
2022/10/10 07:01:58;;;;;;;6.83;6.23;;;11.40;99.90;;;;;;5008770;28;20447;-47
2022/10/10 07:04:26;;;;;;;3.70;3.13;;;11.40;99.90;;;;;;5008163;28;20502;-47
2022/10/10 07:06:53;;;;;;;5.20;3.70;;;11.00;99.90;;;;;;5008526;28;20448;-46
2022/10/10 07:09:20;;;;;;;7.80;3.47;;;11.10;99.90;;;;;;5011936;28;20470;-46
2022/10/10 07:11:46;;;;;;;5.10;3.23;;;11.30;99.90;;;;;;5011741;28;20862;-46
2022/10/10 07:14:13;;;;;;;3.33;3.03;;;11.40;99.90;;;;;;5011413;28;20945;-47
2022/10/10 07:16:40;;;;;;;4.37;3.43;;;11.40;99.90;;;;;;5011670;28;20456;-47
2022/10/10 07:19:07;;;;;;;4.80;3.50;;;11.40;99.90;;;;;;5011622;28;20546;-47
2022/10/10 07:21:35;;;;;;;6.30;4.30;;;11.40;99.90;;;;;;5011428;28;20545;-47
2022/10/10 07:24:02;;;;;;;6.60;4.63;;;11.50;99.90;;;;;;5011331;28;20481;-46
2022/10/10 07:26:30;;;;;;;5.27;4.80;;;11.00;99.90;;;;;;5011514;28;20489;-47
2022/10/10 07:28:57;;;;;;;4.70;4.03;;;10.70;99.90;;;;;;5011169;28;20467;-46
2022/10/10 07:31:23;;;;;;;7.43;4.67;;;10.40;99.90;;;;;;5011553;28;20454;-47
2022/10/10 07:33:50;;;;;;;4.90;4.03;;;10.30;99.90;;;;;;5011050;28;20968;-48
2022/10/10 07:36:17;;;;;;;5.43;4.00;;;10.50;99.90;;;;;;5011752;28;20479;-47
2022/10/10 07:38:50;;;;;;;4.87;3.80;;;10.90;99.90;;;;;;5011408;28;20463;-50
2022/10/10 07:41:18;;;;;;;10.10;4.90;;;11.20;99.90;;;;;;5011620;28;20472;-47
2022/10/10 07:43:45;;;;;;;6.73;4.37;;;11.40;99.90;;;;;;5011215;28;20448;-47
2022/10/10 07:46:15;;;;;;;6.20;5.60;;;11.60;99.90;;;;;;5011226;28;21021;-47
2022/10/10 07:48:41;;;;;;;10.17;7.10;;;11.70;99.90;;;;;;5011390;28;20836;-48
2022/10/10 07:51:09;;;;;;;9.60;6.63;;;11.50;99.90;;;;;;5011210;28;20887;-47
2022/10/10 07:53:36;;;;;;;7.80;5.73;;;11.50;99.90;;;;;;5010898;28;20940;-47
2022/10/10 07:56:06;;;;;;;9.70;5.00;;;11.60;99.90;;;;;;5011350;28;20442;-47
2022/10/10 07:58:33;;;;;;;11.33;4.13;;;11.50;99.90;;;;;;5027681;23;20567;-51
2022/10/10 08:01:04;;;;;;;4.87;4.07;;;11.60;99.90;;;;;;5010929;28;20518;-51
2022/10/10 08:03:31;;;;;;;5.60;3.40;;;11.80;99.90;;;;;;5010808;28;20465;-51
2022/10/10 08:05:58;;;;;;;6.30;3.50;;;11.90;99.90;;;;;;5010846;28;21099;-51
2022/10/10 08:08:25;;;;;;;4.20;3.80;;;11.90;99.90;;;;;;5010493;28;20475;-51
2022/10/10 08:10:52;;;;;;;3.83;3.20;;;12.10;99.90;;;;;;5011036;28;21003;-51
2022/10/10 08:13:20;;;;;;;3.77;3.23;;;12.10;99.90;;;;;;5010680;28;20448;-51
2022/10/10 08:15:50;;;;;;;4.47;3.20;;;12.30;99.90;;;;;;5011012;28;20534;-51
2022/10/10 08:18:18;;;;;;;3.57;3.23;;;12.40;99.90;;;;;;5010351;28;20470;-51
2022/10/10 08:20:45;;;;;;;4.20;3.53;;;12.40;99.90;;;;;;5009775;28;20448;-51
2022/10/10 08:23:12;;;;;;;5.70;3.17;;;12.40;99.90;;;;;;5010670;28;20479;-51
2022/10/10 08:25:38;;;;;;;3.20;2.90;;;12.50;99.90;;;;;;5010694;28;20490;-51
2022/10/10 08:28:05;;;;;;;3.97;3.57;;;12.50;99.90;;;;;;5009995;28;20468;-51
2022/10/10 08:30:34;;;;;;;3.73;3.30;;;12.70;99.90;;;;;;5010263;28;20539;-51
2022/10/10 08:33:01;;;;;;;4.67;3.40;;;12.80;99.90;;;;;;5010500;28;20444;-51
2022/10/10 08:35:28;;;;;;;3.20;2.80;;;12.90;99.90;;;;;;5010687;28;20447;-52
2022/10/10 08:37:55;;;;;;;3.83;2.97;;;12.90;99.90;;;;;;5010673;28;20445;-51
2022/10/10 08:40:22;;;;;;;5.17;3.17;;;13.00;99.90;;;;;;5010583;28;20543;-51
2022/10/10 08:42:53;;;;;;;6.33;4.07;;;12.90;99.90;;;;;;5010274;28;20487;-51
2022/10/10 08:45:23;;;;;;;4.90;4.10;;;13.00;99.90;;;;;;5010410;28;20568;-51
2022/10/10 08:47:55;;;;;;;4.50;4.00;;;13.00;99.90;;;;;;5010282;28;20535;-51
2022/10/10 08:50:27;;;;;;;5.87;4.30;;;13.10;99.90;;;;;;5010766;28;20822;-51
2022/10/10 08:52:57;;;;;;;4.60;3.73;;;13.10;99.90;;;;;;5010092;28;20894;-51
2022/10/10 08:55:29;;;;;;;6.50;4.33;;;13.10;99.90;;;;;;5009970;28;20449;-51
2022/10/10 08:57:59;;;;;;;5.80;4.07;;;13.20;99.90;;;;;;5010429;28;20454;-51
2022/10/10 09:00:31;;;;;;;5.97;3.40;;;13.20;99.90;;;;;;5009922;28;20815;-51
2022/10/10 09:03:00;;;;;;;4.40;2.80;;;13.30;99.90;;;;;;5010066;28;20897;-51
2022/10/10 09:05:45;;;;;;;3.63;2.90;;;13.30;99.90;;;;;;5009929;28;20488;-51
2022/10/10 09:08:34;;;;;;;4.40;3.53;;;13.30;99.90;;;;;;5010504;28;20565;-51
2022/10/10 09:11:09;;;;;;;22.93;11.93;;;13.40;99.90;;;;;;5010143;28;20454;-51
2022/10/10 09:13:39;;;;;;;11.07;7.93;;;13.50;99.90;;;;;;5009796;28;20442;-51
2022/10/10 09:16:13;;;;;;;14.73;9.50;;;13.50;99.90;;;;;;5009781;28;20538;-51
2022/10/10 09:18:52;;;;;;;11.67;7.43;;;13.50;99.90;;;;;;5009655;28;20999;-51
2022/10/10 09:21:22;;;;;;;5.00;3.97;;;13.60;99.90;;;;;;5009758;28;20480;-51
2022/10/10 09:23:55;;;;;;;3.93;3.10;;;13.60;99.90;;;;;;5009544;28;20444;-52
2022/10/10 09:26:25;;;;;;;6.67;3.37;;;13.60;99.90;;;;;;5009673;28;21026;-51
2022/10/10 09:28:56;;;;;;;4.57;3.33;;;13.70;99.90;;;;;;5009150;28;20464;-51
2022/10/10 09:31:31;;;;;;;5.63;2.90;;;13.60;99.90;;;;;;5009147;28;20486;-51
2022/10/10 09:34:04;;;;;;;4.83;3.50;;;13.70;99.90;;;;;;5009475;28;20442;-51
2022/10/10 09:36:35;;;;;;;5.10;3.40;;;13.70;99.90;;;;;;5009377;28;20530;-51
2022/10/10 09:39:06;;;;;;;7.00;3.77;;;13.80;99.90;;;;;;5009675;28;20470;-51
2022/10/10 09:41:36;;;;;;;4.50;3.43;;;13.80;99.90;;;;;;5009807;28;20544;-51
2022/10/10 09:44:06;;;;;;;6.27;3.40;;;13.90;99.90;;;;;;5009086;28;20457;-52
2022/10/10 09:46:33;;;;;;;5.50;3.17;;;13.90;99.90;;;;;;5009569;28;20477;-52
2022/10/10 09:49:01;;;;;;;4.83;3.60;;;14.00;99.90;;;;;;5009343;28;20470;-51
2022/10/10 09:51:30;;;;;;;3.20;2.90;;;14.10;99.90;;;;;;5009102;28;20485;-51
2022/10/10 09:53:57;;;;;;;4.93;3.50;;;14.20;99.90;;;;;;5008863;28;20525;-51
2022/10/10 09:56:27;;;;;;;3.60;3.03;;;14.30;99.90;;;;;;5009370;28;20546;-51
2022/10/10 09:58:56;;;;;;;5.10;3.60;;;14.20;99.90;;;;;;5008670;28;21055;-51
2022/10/10 10:01:25;;;;;;;4.40;3.50;;;14.20;99.90;;;;;;5009311;28;20527;-51
2022/10/10 10:04:31;;;;;;;4.23;3.60;;;14.30;99.90;;;;;;5008564;28;20470;-51
2022/10/10 10:07:05;;;;;;;4.20;3.80;;;14.20;99.90;;;;;;5069070;28;21020;-51
2022/10/10 10:09:33;;;;;;;3.77;3.27;;;14.20;99.90;;;;;;5015915;28;20474;-51
2022/10/10 10:12:00;;;;;;;4.57;3.67;;;14.30;99.90;;;;;;5008426;28;20826;-51
2022/10/10 10:14:29;;;;;;;5.43;3.50;;;14.30;99.90;;;;;;5008169;28;20444;-51
2022/10/10 10:17:06;;;;;;;5.77;3.50;;;14.30;99.90;;;;;;5008607;28;20540;-51
2022/10/10 10:19:36;;;;;;;5.10;3.57;;;14.40;99.90;;;;;;5008134;28;21027;-52
2022/10/10 10:22:04;;;;;;;4.00;3.20;;;14.40;99.90;;;;;;5008449;28;20451;-51
2022/10/10 10:24:35;;;;;;;3.63;3.30;;;14.60;99.90;;;;;;5007881;28;20446;-51
2022/10/10 10:27:17;;;;;;;5.03;3.73;;;14.60;99.90;;;;;;5008605;28;20450;-51
2022/10/10 10:29:47;;;;;;;4.60;3.40;;;14.50;99.90;;;;;;5008606;28;20467;-51
2022/10/10 10:32:22;;;;;;;4.57;3.27;;;14.50;99.90;;;;;;5008611;28;20479;-52
2022/10/10 10:35:15;;;;;;;5.40;3.40;;;14.60;99.90;;;;;;5008172;28;20895;-51
2022/10/10 10:37:53;;;;;;;9.87;3.33;;;14.60;99.90;;;;;;5011770;28;20543;-51
2022/10/10 10:40:32;;;;;;;5.07;3.30;;;14.60;99.90;;;;;;5007902;28;20868;-51
2022/10/10 10:43:25;;;;;;;4.20;2.80;;;14.60;99.90;;;;;;5007096;28;20463;-51
2022/10/10 10:46:01;;;;;;;3.73;3.13;;;14.80;99.90;;;;;;5007916;28;20492;-52
2022/10/10 10:48:31;;;;;;;8.30;3.53;;;14.90;99.90;;;;;;5008240;28;21044;-51
2022/10/10 10:51:15;;;;;;;6.30;3.60;;;14.90;99.90;;;;;;5008568;28;20534;-52
2022/10/10 10:53:50;;;;;;;5.43;4.30;;;15.00;99.90;;;;;;5007949;28;20458;-51
2022/10/10 10:56:24;;;;;;;3.87;3.17;;;15.00;99.90;;;;;;5008536;28;20446;-51
2022/10/10 10:59:10;;;;;;;5.63;3.27;;;15.10;99.90;;;;;;5008429;28;20499;-52
2022/10/10 11:01:42;;;;;;;5.30;3.17;;;15.00;99.90;;;;;;5008833;28;20530;-51
2022/10/10 11:04:22;;;;;;;3.57;3.27;;;15.00;99.90;;;;;;5008167;28;20817;-51
2022/10/10 11:07:03;;;;;;;7.00;3.40;;;15.10;99.90;;;;;;5008502;28;20479;-51
2022/10/10 11:09:35;;;;;;;7.00;4.10;;;15.10;99.90;;;;;;5008367;28;20463;-51
2022/10/10 11:12:13;;;;;;;3.50;3.20;;;15.10;99.90;;;;;;5008428;28;20460;-51
2022/10/10 11:14:55;;;;;;;5.77;3.87;;;15.30;99.90;;;;;;5008502;28;20462;-51
2022/10/10 11:17:26;;;;;;;4.60;3.10;;;15.30;99.90;;;;;;5008417;28;20443;-51
2022/10/10 11:19:56;;;;;;;4.40;3.03;;;15.30;99.90;;;;;;5007643;28;20509;-51
2022/10/10 11:22:28;;;;;;;8.80;4.07;;;15.30;99.90;;;;;;5008247;28;20537;-51
2022/10/10 11:25:01;;;;;;;3.20;2.90;;;15.40;99.90;;;;;;5007852;28;20447;-51
2022/10/10 11:27:33;;;;;;;5.47;3.60;;;15.40;99.90;;;;;;5008349;28;20444;-51
2022/10/10 11:30:14;;;;;;;3.77;3.37;;;15.50;99.90;;;;;;5008073;28;20468;-51
2022/10/10 11:32:47;;;;;;;4.30;3.90;;;15.50;99.90;;;;;;5007781;28;20451;-52
2022/10/10 11:35:24;;;;;;;6.90;3.33;;;15.50;99.90;;;;;;5007694;28;20441;-51
2022/10/10 11:37:57;;;;;;;3.00;2.70;;;15.70;99.90;;;;;;5008235;28;20530;-51
2022/10/10 11:40:42;;;;;;;5.20;3.30;;;15.50;99.90;;;;;;5008038;28;20454;-51
2022/10/10 11:43:15;;;;;;;4.10;3.40;;;15.60;99.90;;;;;;5007712;28;20976;-51
2022/10/10 11:45:45;;;;;;;3.73;3.27;;;15.60;99.90;;;;;;5007854;28;20546;-52
2022/10/10 11:48:22;;;;;;;3.43;3.00;;;15.60;99.90;;;;;;5007895;28;20473;-52
2022/10/10 11:50:56;;;;;;;3.37;2.97;;;15.50;99.90;;;;;;5008082;28;20535;-51
2022/10/10 11:53:31;;;;;;;5.43;3.27;;;15.50;99.90;;;;;;5008375;28;20492;-52
2022/10/10 11:56:07;;;;;;;4.33;3.93;;;15.50;99.90;;;;;;5011085;28;20447;-51
2022/10/10 11:58:39;;;;;;;7.20;2.97;;;15.50;99.90;;;;;;5011048;28;21022;-51
2022/10/10 12:01:14;;;;;;;4.37;3.97;;;15.50;99.90;;;;;;5011004;28;20534;-51
2022/10/10 12:03:41;;;;;;;4.77;3.27;;;15.50;99.90;;;;;;5010838;28;20534;-52
2022/10/10 12:06:17;;;;;;;7.00;3.60;;;15.70;99.90;;;;;;5010753;28;20562;-52
2022/10/10 12:08:51;;;;;;;5.40;3.30;;;15.70;99.90;;;;;;5011272;28;20551;-53
2022/10/10 12:11:21;;;;;;;5.10;3.23;;;15.70;99.90;;;;;;5010941;28;20447;-53
2022/10/10 12:13:52;;;;;;;6.80;3.50;;;15.70;99.90;;;;;;5010574;28;20447;-52
2022/10/10 12:16:22;;;;;;;4.03;3.13;;;15.70;99.90;;;;;;5010490;28;20510;-52
2022/10/10 12:18:52;;;;;;;3.93;3.20;;;15.60;99.90;;;;;;5011174;28;20826;-52
2022/10/10 12:21:23;;;;;;;5.50;3.40;;;15.70;99.90;;;;;;5010391;28;20530;-52
2022/10/10 12:24:01;;;;;;;4.00;3.07;;;15.70;99.90;;;;;;5010314;28;20527;-53
2022/10/10 12:27:06;;;;;;;5.90;4.10;;;15.80;99.90;;;;;;5010497;28;20841;-52
2022/10/10 12:29:42;;;;;;;4.70;2.80;;;15.80;99.90;;;;;;5010473;28;21024;-53
2022/10/10 12:32:23;;;;;;;4.73;3.30;;;15.90;99.90;;;;;;5010546;28;20517;-53
2022/10/10 12:34:59;;;;;;;6.40;3.80;;;15.90;99.90;;;;;;5010131;28;20450;-52
2022/10/10 12:37:28;;;;;;;5.77;3.40;;;16.00;99.90;;;;;;5010738;28;20443;-52
2022/10/10 12:40:24;;;;;;;4.07;3.00;;;16.10;99.90;;;;;;5010469;28;20520;-52
2022/10/10 12:43:21;;;;;;;3.40;3.10;;;16.30;99.90;;;;;;5010161;28;20440;-53
2022/10/10 12:46:08;;;;;;;4.17;3.07;;;16.40;99.90;;;;;;5010188;28;20483;-52
2022/10/10 12:48:35;;;;;;;5.03;3.77;;;16.40;99.90;;;;;;5010149;28;20880;-52
2022/10/10 12:51:02;;;;;;;3.23;2.93;;;16.40;99.90;;;;;;5010439;28;20530;-53
2022/10/10 12:53:32;;;;;;;4.43;2.80;;;16.40;99.90;;;;;;5009859;28;21044;-53
2022/10/10 12:56:01;;;;;;;6.03;3.63;;;16.50;99.90;;;;;;5010219;28;20853;-53
2022/10/10 12:58:32;;;;;;;4.63;3.00;;;16.50;99.90;;;;;;5010219;28;20490;-52
2022/10/10 13:01:01;;;;;;;12.80;4.60;;;16.60;99.90;;;;;;5010298;28;20499;-53